Time;durP1;ratioP1;P1;durP2;ratioP2;P2;SDS_P1;SDS_P2;PMS_P1;PMS_P2;Temp;Humidity;BMP_temperature;BMP_pressure;BME280_temperature;BME280_humidity;BME280_pressure;Samples;Min_cycle;Max_cycle;Signal;HPM_P1;HPM_P2
2021/12/10 00:01:47;;;;;;;1999.90;655.83;;;4.40;99.90;;;;;;4919639;29;20836;-75
2021/12/10 00:04:17;;;;;;;1999.90;698.30;;;4.40;99.90;;;;;;4919321;29;20468;-75
2021/12/10 00:06:49;;;;;;;1971.93;508.10;;;4.40;99.90;;;;;;4919870;29;20858;-76
2021/12/10 00:09:22;;;;;;;1999.90;525.47;;;4.40;99.90;;;;;;4902730;29;20448;-75
2021/12/10 00:11:53;;;;;;;1999.90;999.90;;;4.40;99.90;;;;;;4902328;29;20456;-75
2021/12/10 00:14:26;;;;;;;1999.90;521.40;;;4.40;99.90;;;;;;4901533;29;20559;-76
2021/12/10 00:16:55;;;;;;;1999.90;627.83;;;4.40;99.90;;;;;;4902320;29;20886;-76
2021/12/10 00:19:30;;;;;;;1999.90;523.07;;;4.40;99.90;;;;;;4902124;29;20468;-76
2021/12/10 00:22:01;;;;;;;1999.90;400.63;;;4.40;99.90;;;;;;4902414;29;20491;-76
2021/12/10 00:24:31;;;;;;;1999.90;373.80;;;4.30;99.90;;;;;;4919319;29;20558;-75
2021/12/10 00:27:03;;;;;;;1999.90;515.23;;;4.40;99.90;;;;;;4902142;29;20455;-76
2021/12/10 00:29:32;;;;;;;1999.90;507.83;;;4.40;99.90;;;;;;4902047;29;20535;-76
2021/12/10 00:32:05;;;;;;;1990.10;535.53;;;4.30;99.90;;;;;;4902029;29;20825;-75
2021/12/10 00:34:37;;;;;;;1999.90;712.03;;;4.40;99.90;;;;;;4901839;29;20864;-75
2021/12/10 00:37:09;;;;;;;1912.00;487.77;;;4.40;99.90;;;;;;4919123;29;20527;-75
2021/12/10 00:39:44;;;;;;;1957.77;492.70;;;4.40;99.90;;;;;;4918853;29;20481;-75
2021/12/10 00:42:15;;;;;;;1999.90;658.30;;;4.30;99.90;;;;;;4901799;29;20510;-76
2021/12/10 00:44:43;;;;;;;1999.90;622.40;;;4.40;99.90;;;;;;4918881;29;20547;-75
2021/12/10 00:47:11;;;;;;;1999.90;679.27;;;4.40;99.90;;;;;;4901779;29;20833;-75
2021/12/10 00:49:40;;;;;;;1999.90;815.80;;;4.40;99.90;;;;;;4901821;29;20982;-75
2021/12/10 00:52:11;;;;;;;1999.90;510.77;;;4.40;99.90;;;;;;4918747;29;20974;-76
2021/12/10 00:54:41;;;;;;;1999.90;694.93;;;4.40;99.90;;;;;;4918418;29;20952;-75
2021/12/10 00:57:11;;;;;;;1999.90;488.13;;;4.40;99.90;;;;;;4901456;29;20460;-76
2021/12/10 00:59:41;;;;;;;1999.90;648.77;;;4.30;99.90;;;;;;4918318;29;20444;-76
2021/12/10 01:02:12;;;;;;;1999.90;688.23;;;4.40;99.90;;;;;;4918221;29;20474;-76
2021/12/10 01:04:43;;;;;;;1953.67;411.43;;;4.40;99.90;;;;;;4918341;29;20460;-75
2021/12/10 01:07:16;;;;;;;1999.90;999.90;;;4.30;99.90;;;;;;4901252;29;20459;-76
2021/12/10 01:09:49;;;;;;;1999.90;416.43;;;4.40;99.90;;;;;;4901438;29;20441;-75
2021/12/10 01:12:22;;;;;;;1999.90;587.33;;;4.30;99.90;;;;;;4918135;29;20917;-75
2021/12/10 01:15:04;;;;;;;1999.90;661.83;;;4.30;99.90;;;;;;4901035;29;20512;-76
2021/12/10 01:26:10;;;;;;;1999.90;999.90;;;4.40;99.90;;;;;;4900321;29;20460;-75
2021/12/10 01:28:41;;;;;;;1999.90;999.90;;;4.30;99.90;;;;;;4902021;29;20554;-76
2021/12/10 01:31:10;;;;;;;1999.90;999.90;;;4.30;99.90;;;;;;4900913;29;20479;-76
2021/12/10 01:33:39;;;;;;;1999.90;606.27;;;4.30;99.90;;;;;;4900985;29;20477;-76
2021/12/10 01:36:08;;;;;;;1999.90;627.37;;;4.30;99.90;;;;;;4901073;29;20444;-75
2021/12/10 01:38:39;;;;;;;1999.90;438.93;;;4.30;99.90;;;;;;4900776;29;20551;-76
2021/12/10 01:41:12;;;;;;;1999.90;821.67;;;4.30;99.90;;;;;;4918117;29;20436;-76
2021/12/10 01:43:42;;;;;;;1999.90;510.93;;;4.30;99.90;;;;;;4917785;29;20994;-76
2021/12/10 01:46:18;;;;;;;1999.90;999.90;;;4.40;99.90;;;;;;4900643;29;20449;-76
2021/12/10 01:48:48;;;;;;;1999.90;452.20;;;4.30;99.90;;;;;;4917891;29;20523;-75
2021/12/10 01:51:20;;;;;;;1999.90;623.53;;;4.40;99.90;;;;;;4900309;29;20488;-75
2021/12/10 01:53:51;;;;;;;1999.90;822.60;;;4.30;99.90;;;;;;4900775;29;20476;-76
2021/12/10 01:56:23;;;;;;;1999.90;525.60;;;4.40;99.90;;;;;;4900691;29;20884;-76
2021/12/10 01:58:52;;;;;;;1999.90;472.37;;;4.40;99.90;;;;;;4900507;29;20943;-76
2021/12/10 02:01:23;;;;;;;1999.90;621.50;;;4.30;99.90;;;;;;4900368;29;20554;-75
2021/12/10 02:03:53;;;;;;;1999.90;405.43;;;4.30;99.90;;;;;;4900350;29;20495;-75
2021/12/10 02:06:23;;;;;;;1999.90;398.00;;;4.40;99.90;;;;;;4900465;29;20463;-76
2021/12/10 02:08:51;;;;;;;1999.90;658.27;;;4.30;99.90;;;;;;4900253;29;20642;-76
2021/12/10 02:11:22;;;;;;;1999.90;452.63;;;4.30;99.90;;;;;;4900475;29;20466;-75
2021/12/10 02:13:52;;;;;;;1999.90;466.10;;;4.40;99.90;;;;;;4917606;29;20988;-76
2021/12/10 02:16:20;;;;;;;1999.90;679.23;;;4.40;99.90;;;;;;4917475;29;20499;-76
2021/12/10 02:18:49;;;;;;;1999.90;999.90;;;4.40;99.90;;;;;;4900257;29;20466;-76
2021/12/10 02:21:21;;;;;;;1999.90;999.90;;;4.40;99.90;;;;;;4900089;29;20971;-76
2021/12/10 02:23:56;;;;;;;1999.90;730.90;;;4.40;99.90;;;;;;4916938;29;20501;-76
2021/12/10 02:26:26;;;;;;;1999.90;527.07;;;4.40;99.90;;;;;;4917339;29;20476;-75
2021/12/10 02:28:55;;;;;;;1999.90;567.57;;;4.30;99.90;;;;;;4917411;29;20538;-75
2021/12/10 02:31:24;;;;;;;1999.90;538.83;;;4.40;99.90;;;;;;4900090;29;20447;-75
2021/12/10 02:33:55;;;;;;;1999.90;566.00;;;4.30;99.90;;;;;;4917199;29;20472;-75
2021/12/10 02:36:25;;;;;;;1999.90;422.70;;;4.30;99.90;;;;;;4918129;29;20515;-75
2021/12/10 02:38:55;;;;;;;1999.90;433.57;;;4.30;99.90;;;;;;4906369;29;20520;-75
2021/12/10 02:41:28;;;;;;;1999.90;608.73;;;4.30;99.90;;;;;;4906299;29;20871;-76
2021/12/10 02:43:58;;;;;;;1999.90;655.07;;;4.30;99.90;;;;;;4906217;29;20492;-75
2021/12/10 02:46:27;;;;;;;1999.90;729.40;;;4.30;99.90;;;;;;4906247;29;20483;-75
2021/12/10 02:48:56;;;;;;;1999.90;561.47;;;4.30;99.90;;;;;;4906238;29;20840;-75
2021/12/10 02:51:26;;;;;;;1999.90;511.97;;;4.30;99.90;;;;;;4906367;29;20446;-75
2021/12/10 02:53:55;;;;;;;1999.90;609.33;;;4.30;99.90;;;;;;4906346;29;20842;-76
2021/12/10 02:56:24;;;;;;;1999.90;685.10;;;4.30;99.90;;;;;;4906086;29;20448;-75
2021/12/10 02:58:55;;;;;;;1642.90;376.77;;;4.30;99.90;;;;;;4922970;29;20939;-76
2021/12/10 03:01:27;;;;;;;1999.90;551.97;;;4.30;99.90;;;;;;4905900;29;20505;-75
2021/12/10 03:03:56;;;;;;;1999.90;677.53;;;4.30;99.90;;;;;;4906000;29;20569;-75
2021/12/10 03:06:26;;;;;;;1999.90;619.43;;;4.30;99.90;;;;;;4906005;29;20453;-76
2021/12/10 03:08:55;;;;;;;1999.90;571.37;;;4.30;99.90;;;;;;4923215;29;20440;-75
2021/12/10 03:11:26;;;;;;;1999.90;486.13;;;4.30;99.90;;;;;;4906173;29;20888;-76
2021/12/10 03:13:55;;;;;;;1643.33;373.23;;;4.30;99.90;;;;;;4923712;29;20460;-76
2021/12/10 03:16:24;;;;;;;1999.90;735.33;;;4.30;99.90;;;;;;4905919;29;20447;-76
2021/12/10 03:18:52;;;;;;;1999.90;565.30;;;4.30;99.90;;;;;;4905780;29;20511;-75
2021/12/10 03:21:21;;;;;;;1999.90;571.10;;;4.30;99.90;;;;;;4905934;29;20450;-75
2021/12/10 03:23:51;;;;;;;1999.90;586.50;;;4.30;99.90;;;;;;4922573;29;21007;-76
2021/12/10 03:26:22;;;;;;;1999.90;999.90;;;4.30;99.90;;;;;;4905721;29;20818;-76
2021/12/10 03:28:53;;;;;;;1999.90;523.97;;;4.30;99.90;;;;;;4906107;29;20451;-76
2021/12/10 03:31:23;;;;;;;1999.90;530.83;;;4.20;99.90;;;;;;4922852;29;20900;-76
2021/12/10 03:33:54;;;;;;;1999.90;559.67;;;4.30;99.90;;;;;;4905797;29;20476;-76
2021/12/10 03:36:23;;;;;;;1999.90;534.47;;;4.20;99.90;;;;;;4905857;29;20508;-75
2021/12/10 03:38:54;;;;;;;1983.80;496.63;;;4.30;99.90;;;;;;4923239;29;20444;-75
2021/12/10 03:41:23;;;;;;;1999.90;480.77;;;4.20;99.90;;;;;;4905805;29;20447;-76
2021/12/10 03:43:53;;;;;;;1999.90;661.57;;;4.20;99.90;;;;;;4905480;29;20489;-75
2021/12/10 03:46:22;;;;;;;1999.90;576.77;;;4.30;99.90;;;;;;4905747;29;20535;-76
2021/12/10 03:48:51;;;;;;;1999.90;502.63;;;4.20;99.90;;;;;;4903129;29;20467;-76
2021/12/10 03:51:22;;;;;;;1999.90;700.83;;;4.20;99.90;;;;;;4902721;29;20457;-75
2021/12/10 03:53:52;;;;;;;1999.90;999.90;;;4.20;99.90;;;;;;4902621;29;20506;-76
2021/12/10 03:56:24;;;;;;;1903.90;369.03;;;4.20;99.90;;;;;;4902651;29;20453;-76
2021/12/10 03:58:55;;;;;;;1999.90;443.30;;;4.20;99.90;;;;;;4902816;29;20460;-76
2021/12/10 04:01:26;;;;;;;1999.90;556.53;;;4.20;99.90;;;;;;4902501;29;20467;-76
2021/12/10 04:03:55;;;;;;;1999.90;462.50;;;4.20;99.90;;;;;;4902373;29;20483;-76
2021/12/10 04:06:24;;;;;;;1999.90;674.63;;;4.20;99.90;;;;;;4919601;29;20456;-76
2021/12/10 04:08:58;;;;;;;1999.90;670.97;;;4.20;99.90;;;;;;4902457;29;20450;-76
2021/12/10 04:11:27;;;;;;;1999.90;520.33;;;4.10;99.90;;;;;;4902614;29;20536;-76
2021/12/10 04:13:57;;;;;;;1999.90;619.47;;;4.20;99.90;;;;;;4902136;29;20571;-76
2021/12/10 04:16:28;;;;;;;1999.90;561.43;;;4.20;99.90;;;;;;4902243;29;20460;-76
2021/12/10 04:18:58;;;;;;;1999.90;496.47;;;4.20;99.90;;;;;;4902246;29;20514;-76
2021/12/10 04:24:15;;;;;;;1999.90;444.40;;;4.20;99.90;;;;;;4919079;29;20586;-75
2021/12/10 04:26:43;;;;;;;1999.90;857.40;;;4.20;99.90;;;;;;4902155;29;20446;-75
2021/12/10 04:29:12;;;;;;;1999.90;999.90;;;4.10;99.90;;;;;;4902148;29;20499;-75
2021/12/10 04:31:40;;;;;;;1999.90;831.40;;;4.20;99.90;;;;;;4901978;29;20440;-75
2021/12/10 04:34:08;;;;;;;1988.67;498.50;;;4.10;99.90;;;;;;4901861;29;20884;-76
2021/12/10 04:36:37;;;;;;;1999.90;652.23;;;4.10;99.90;;;;;;4902061;29;20448;-75
2021/12/10 04:39:06;;;;;;;1999.90;557.53;;;4.10;99.90;;;;;;4901994;29;20452;-75
2021/12/10 04:41:36;;;;;;;1999.90;676.10;;;4.10;99.90;;;;;;4901935;29;20482;-76
2021/12/10 04:44:05;;;;;;;1999.90;681.17;;;4.20;99.90;;;;;;4918593;29;20494;-76
2021/12/10 04:46:34;;;;;;;1999.90;707.93;;;4.10;99.90;;;;;;4918943;29;20445;-75
2021/12/10 04:49:04;;;;;;;1999.90;665.23;;;4.10;99.90;;;;;;4902567;29;20468;-75
2021/12/10 04:51:37;;;;;;;1999.90;585.40;;;4.10;99.90;;;;;;4901934;29;20477;-75
2021/12/10 04:54:08;;;;;;;1999.90;518.13;;;4.10;99.90;;;;;;4901554;29;20486;-75
2021/12/10 04:56:39;;;;;;;1999.90;515.87;;;4.10;99.90;;;;;;4901909;29;20455;-75
2021/12/10 04:59:10;;;;;;;1999.90;515.43;;;4.10;99.90;;;;;;4901710;29;20468;-75
2021/12/10 05:01:39;;;;;;;1999.90;999.90;;;4.10;99.90;;;;;;4918746;29;20483;-75
2021/12/10 05:04:09;;;;;;;1999.90;516.00;;;4.10;99.90;;;;;;4901502;29;20571;-75
2021/12/10 05:06:38;;;;;;;1999.90;530.23;;;4.10;99.90;;;;;;4901483;29;20443;-75
2021/12/10 05:09:10;;;;;;;1999.90;681.10;;;4.10;99.90;;;;;;4901369;29;20452;-76
2021/12/10 05:11:41;;;;;;;1999.90;545.30;;;4.10;99.90;;;;;;4918325;29;20951;-75
2021/12/10 05:14:09;;;;;;;1999.90;999.90;;;4.00;99.90;;;;;;4918306;29;20466;-75
2021/12/10 05:16:42;;;;;;;1999.90;638.83;;;4.10;99.90;;;;;;4918201;29;20480;-76
2021/12/10 05:19:12;;;;;;;1999.90;653.17;;;4.00;99.90;;;;;;4901286;29;20938;-75
2021/12/10 05:21:42;;;;;;;1999.90;574.83;;;4.10;99.90;;;;;;4901235;29;20974;-75
2021/12/10 05:24:10;;;;;;;1999.90;599.47;;;4.00;99.90;;;;;;4901194;29;20488;-75
2021/12/10 05:26:40;;;;;;;1999.90;590.80;;;4.00;99.90;;;;;;4901081;29;20459;-75
2021/12/10 05:29:10;;;;;;;1999.90;635.80;;;4.00;99.90;;;;;;4918259;29;20523;-76
2021/12/10 05:31:40;;;;;;;1999.90;702.03;;;4.00;99.90;;;;;;4918483;29;20448;-76
2021/12/10 05:34:15;;;;;;;1999.90;532.90;;;4.00;99.90;;;;;;4917864;29;20570;-75
2021/12/10 05:36:44;;;;;;;1999.90;613.70;;;4.00;99.90;;;;;;4901105;29;20883;-75
2021/12/10 05:39:14;;;;;;;1999.90;720.40;;;4.00;99.90;;;;;;4900797;29;20478;-75
2021/12/10 05:41:43;;;;;;;1999.90;570.27;;;4.00;99.90;;;;;;4900884;29;20465;-75
2021/12/10 05:44:11;;;;;;;1999.90;999.90;;;4.00;99.90;;;;;;4917915;29;20909;-75
2021/12/10 05:46:40;;;;;;;1999.90;793.67;;;4.00;99.90;;;;;;4917628;29;20486;-75
2021/12/10 05:49:09;;;;;;;1999.90;631.17;;;4.00;99.90;;;;;;4900618;29;20985;-75
2021/12/10 05:51:41;;;;;;;1999.90;662.30;;;4.00;99.90;;;;;;4900725;29;20455;-75
2021/12/10 05:54:09;;;;;;;1999.90;935.77;;;4.00;99.90;;;;;;4900484;29;20510;-75
2021/12/10 05:56:38;;;;;;;1999.90;790.40;;;4.00;99.90;;;;;;4900508;29;20454;-75
2021/12/10 05:59:08;;;;;;;1999.90;669.07;;;4.00;99.90;;;;;;4917661;29;20542;-75
2021/12/10 06:01:37;;;;;;;1999.90;999.90;;;4.00;99.90;;;;;;4900681;29;20459;-75
2021/12/10 06:04:07;;;;;;;1999.90;677.60;;;4.00;99.90;;;;;;4917652;29;20547;-75
2021/12/10 06:06:36;;;;;;;1999.90;999.90;;;4.00;99.90;;;;;;4917537;29;21067;-75
2021/12/10 06:09:07;;;;;;;1999.90;774.93;;;4.00;99.90;;;;;;4900309;29;20459;-75
2021/12/10 06:11:36;;;;;;;1999.90;999.90;;;4.00;99.90;;;;;;4917268;29;20534;-76
2021/12/10 06:14:06;;;;;;;1999.90;720.93;;;4.00;99.90;;;;;;4900141;29;20583;-75
2021/12/10 06:16:37;;;;;;;1595.87;407.37;;;4.00;99.90;;;;;;4900171;29;20496;-75
2021/12/10 06:19:08;;;;;;;1999.90;622.50;;;4.00;99.90;;;;;;4917617;29;20427;-75
2021/12/10 06:21:38;;;;;;;1999.90;801.77;;;4.00;99.90;;;;;;4917597;29;20807;-76
2021/12/10 06:24:08;;;;;;;1999.90;999.90;;;4.00;99.90;;;;;;4900079;29;21038;-75
2021/12/10 06:26:36;;;;;;;1999.90;544.53;;;4.00;99.90;;;;;;4899916;29;20483;-75
2021/12/10 06:29:05;;;;;;;1999.90;670.50;;;4.00;99.90;;;;;;4917318;29;20448;-75
2021/12/10 06:31:33;;;;;;;1999.90;715.57;;;4.00;99.90;;;;;;4899919;29;20458;-75
2021/12/10 06:34:04;;;;;;;1999.90;999.90;;;4.00;99.90;;;;;;4917221;29;20468;-75
2021/12/10 06:36:35;;;;;;;1999.90;773.53;;;4.00;99.90;;;;;;4899930;29;20496;-75
2021/12/10 06:39:06;;;;;;;1590.70;471.63;;;4.00;99.90;;;;;;4917222;29;20845;-75
2021/12/10 06:41:34;;;;;;;1999.90;689.83;;;4.00;99.90;;;;;;4899969;29;20452;-75
2021/12/10 06:44:04;;;;;;;1999.90;831.07;;;4.00;99.90;;;;;;4916800;29;20546;-75
2021/12/10 06:46:33;;;;;;;1999.90;811.83;;;4.00;99.90;;;;;;4900087;29;20472;-75
2021/12/10 06:49:02;;;;;;;1999.90;677.27;;;4.00;99.90;;;;;;4900043;29;20982;-75
2021/12/10 06:51:31;;;;;;;1999.90;742.10;;;4.00;99.90;;;;;;4917093;29;20652;-75
2021/12/10 06:53:59;;;;;;;1999.90;805.50;;;4.00;99.90;;;;;;4899976;29;20478;-75
2021/12/10 06:56:29;;;;;;;1999.90;765.40;;;4.00;99.90;;;;;;4900704;29;20491;-75
2021/12/10 06:58:57;;;;;;;1999.90;784.87;;;4.00;99.90;;;;;;4916915;29;20444;-75
2021/12/10 07:01:28;;;;;;;1999.90;784.43;;;4.00;99.90;;;;;;4917010;29;20448;-75
2021/12/10 07:03:59;;;;;;;1999.90;867.93;;;4.00;99.90;;;;;;4899710;29;20540;-76
2021/12/10 07:06:29;;;;;;;1999.90;695.83;;;4.00;99.90;;;;;;4899944;29;20511;-75
2021/12/10 07:09:00;;;;;;;1999.90;718.07;;;4.00;99.90;;;;;;4916781;29;20869;-76
2021/12/10 07:11:29;;;;;;;1999.90;673.53;;;4.00;99.90;;;;;;4917082;29;20532;-75
2021/12/10 07:13:58;;;;;;;1999.90;777.77;;;4.00;99.90;;;;;;4899819;29;20471;-75
2021/12/10 07:16:28;;;;;;;1999.90;633.27;;;4.00;99.90;;;;;;4899714;29;20483;-75
2021/12/10 07:18:59;;;;;;;1999.90;724.47;;;4.00;99.90;;;;;;4916642;29;20514;-75
2021/12/10 07:21:31;;;;;;;1999.90;684.90;;;3.90;99.90;;;;;;4899622;29;20490;-75
2021/12/10 07:24:01;;;;;;;1999.90;847.70;;;3.90;99.90;;;;;;4900698;29;20514;-75
2021/12/10 07:26:31;;;;;;;1999.90;999.90;;;3.90;99.90;;;;;;4903358;29;21002;-75
2021/12/10 07:29:00;;;;;;;1999.90;823.50;;;3.90;99.90;;;;;;4903451;29;20455;-75
2021/12/10 07:31:29;;;;;;;1999.90;719.57;;;3.90;99.90;;;;;;4920218;29;20469;-75
2021/12/10 07:33:57;;;;;;;1999.90;803.43;;;3.90;99.90;;;;;;4920344;29;20524;-75
2021/12/10 07:36:26;;;;;;;1999.90;860.90;;;3.90;99.90;;;;;;4920066;29;20454;-75
2021/12/10 07:38:57;;;;;;;1999.90;696.07;;;3.90;99.90;;;;;;4903041;29;20499;-75
2021/12/10 07:41:26;;;;;;;1999.90;755.63;;;3.90;99.90;;;;;;4902963;29;20543;-75
2021/12/10 07:43:54;;;;;;;1999.90;695.17;;;3.90;99.90;;;;;;4919811;29;20462;-75
2021/12/10 07:46:27;;;;;;;1999.90;780.30;;;3.90;99.90;;;;;;4902867;29;20480;-74
2021/12/10 07:48:57;;;;;;;1999.90;722.20;;;3.90;99.90;;;;;;4902961;29;20448;-75
2021/12/10 07:51:29;;;;;;;1999.90;724.63;;;3.80;99.90;;;;;;4920019;29;20482;-75
2021/12/10 07:54:00;;;;;;;1999.90;738.83;;;3.80;99.90;;;;;;4902652;29;20471;-75
2021/12/10 07:56:30;;;;;;;1999.90;767.17;;;3.80;99.90;;;;;;4902657;29;20888;-75
2021/12/10 07:59:00;;;;;;;1999.90;727.47;;;3.80;99.90;;;;;;4903165;29;20447;-75
2021/12/10 08:01:30;;;;;;;1999.90;999.90;;;3.80;99.90;;;;;;4919504;29;20459;-75
2021/12/10 08:04:02;;;;;;;1999.90;699.43;;;3.80;99.90;;;;;;4902689;29;21001;-75
2021/12/10 08:06:32;;;;;;;1999.90;737.93;;;3.70;99.90;;;;;;4902636;29;20486;-75
2021/12/10 08:09:03;;;;;;;1999.90;684.30;;;3.70;99.90;;;;;;4902538;29;20998;-75
2021/12/10 08:11:31;;;;;;;1999.90;702.27;;;3.70;99.90;;;;;;4919601;29;20975;-75
2021/12/10 08:14:00;;;;;;;1999.90;825.97;;;3.70;99.90;;;;;;4902349;29;20805;-75
2021/12/10 08:16:30;;;;;;;1999.90;793.23;;;3.70;99.90;;;;;;4902293;29;20455;-75
2021/12/10 08:18:58;;;;;;;1999.90;999.90;;;3.70;99.90;;;;;;4919737;29;20413;-75
2021/12/10 08:21:26;;;;;;;1999.90;783.90;;;3.70;99.90;;;;;;4902618;29;20464;-75
2021/12/10 08:23:55;;;;;;;1999.90;222.10;;;3.60;99.90;;;;;;4919130;29;20847;-75
2021/12/10 08:26:24;;;;;;;1999.90;752.07;;;3.60;99.90;;;;;;4901987;29;20487;-75
2021/12/10 08:28:53;;;;;;;1999.90;802.47;;;3.60;99.90;;;;;;4902192;29;20562;-75
2021/12/10 08:31:22;;;;;;;1994.47;731.80;;;3.60;99.90;;;;;;4902780;29;20467;-75
2021/12/10 08:33:50;;;;;;;1999.90;760.73;;;3.60;99.90;;;;;;4918933;29;20464;-75
2021/12/10 08:36:21;;;;;;;1999.90;737.73;;;3.60;99.90;;;;;;4901710;29;20448;-75
2021/12/10 08:38:49;;;;;;;1999.90;792.53;;;3.60;99.90;;;;;;4919178;29;20459;-75
2021/12/10 08:41:21;;;;;;;1999.90;999.90;;;3.60;99.90;;;;;;4902066;29;20460;-75
2021/12/10 08:43:53;;;;;;;1999.90;999.90;;;3.60;99.90;;;;;;4901705;29;20566;-75
2021/12/10 08:46:22;;;;;;;1999.90;999.90;;;3.60;99.90;;;;;;4901789;29;20504;-75
2021/12/10 08:48:50;;;;;;;1999.90;728.90;;;3.60;99.90;;;;;;4901739;29;20463;-75
2021/12/10 08:51:22;;;;;;;1999.90;781.90;;;3.60;99.90;;;;;;4901783;29;20492;-75
2021/12/10 08:53:50;;;;;;;1999.90;999.90;;;3.60;99.90;;;;;;4918759;29;20501;-75
2021/12/10 08:56:19;;;;;;;1999.90;740.63;;;3.60;99.90;;;;;;4901661;29;20947;-75
2021/12/10 08:58:47;;;;;;;1742.40;445.27;;;3.60;99.90;;;;;;4918838;29;20490;-75
2021/12/10 09:01:19;;;;;;;1999.90;999.90;;;3.60;99.90;;;;;;4901419;29;20462;-74
2021/12/10 09:03:50;;;;;;;1999.90;783.57;;;3.60;99.90;;;;;;4901950;29;20535;-75
2021/12/10 09:06:21;;;;;;;1999.90;854.33;;;3.60;99.90;;;;;;4901453;29;20548;-75
2021/12/10 09:08:49;;;;;;;1999.90;765.77;;;3.60;99.90;;;;;;4901426;29;20527;-75
2021/12/10 09:11:18;;;;;;;1999.90;793.20;;;3.70;99.90;;;;;;4901502;29;20494;-75
2021/12/10 09:14:01;;;;;;;1999.90;700.13;;;3.70;99.90;;;;;;4901190;29;20472;-75
2021/12/10 09:16:31;;;;;;;1999.90;690.00;;;3.70;99.90;;;;;;4901518;29;20812;-75
2021/12/10 09:19:02;;;;;;;1999.90;999.90;;;3.70;99.90;;;;;;4901181;29;20499;-75
2021/12/10 09:21:33;;;;;;;1999.90;617.63;;;3.70;99.90;;;;;;4901532;29;20461;-75
2021/12/10 09:24:06;;;;;;;1999.90;750.03;;;3.70;99.90;;;;;;4901176;29;20523;-75
2021/12/10 09:26:36;;;;;;;1999.90;742.70;;;3.70;99.90;;;;;;4901104;29;20549;-75
2021/12/10 09:29:06;;;;;;;1999.90;949.47;;;3.70;99.90;;;;;;4901736;29;21024;-75
2021/12/10 09:31:39;;;;;;;1839.10;738.00;;;3.70;99.90;;;;;;4901677;29;20491;-75
2021/12/10 09:34:07;;;;;;;1999.90;623.53;;;3.70;99.90;;;;;;4901173;29;20998;-75
2021/12/10 09:36:36;;;;;;;1999.90;575.00;;;3.70;99.90;;;;;;4900865;29;20559;-75
2021/12/10 09:39:08;;;;;;;1999.90;734.30;;;3.70;99.90;;;;;;4900836;29;20444;-75
2021/12/10 09:41:37;;;;;;;1935.60;734.13;;;3.80;99.90;;;;;;4900772;29;20856;-75
2021/12/10 09:44:07;;;;;;;1999.90;663.30;;;3.70;99.90;;;;;;4900612;29;20842;-75
2021/12/10 09:46:37;;;;;;;1999.90;707.83;;;3.80;99.90;;;;;;4899565;29;20536;-75
2021/12/10 09:49:09;;;;;;;1999.90;739.23;;;3.80;99.90;;;;;;4900663;29;20456;-75
2021/12/10 09:51:44;;;;;;;1999.90;688.97;;;3.80;99.90;;;;;;4900708;29;20514;-75
2021/12/10 09:54:16;;;;;;;1999.90;910.00;;;3.90;99.90;;;;;;4917698;29;20570;-74
2021/12/10 09:56:47;;;;;;;1999.90;999.90;;;3.90;99.90;;;;;;4900738;29;20451;-75
2021/12/10 09:59:17;;;;;;;1999.90;681.67;;;3.90;99.90;;;;;;4900489;29;20543;-75
2021/12/10 10:01:48;;;;;;;1999.90;562.77;;;3.90;99.90;;;;;;4900472;29;20470;-75
2021/12/10 10:04:18;;;;;;;1999.90;999.90;;;4.00;99.90;;;;;;4917780;29;20479;-75
2021/12/10 10:06:50;;;;;;;1999.90;533.23;;;4.00;99.90;;;;;;4917542;29;20492;-75
2021/12/10 10:09:21;;;;;;;1999.90;999.90;;;4.00;99.90;;;;;;4900244;29;20530;-75
2021/12/10 10:11:55;;;;;;;1999.90;999.90;;;4.00;99.90;;;;;;4917603;29;20436;-75
2021/12/10 10:14:23;;;;;;;1999.90;999.90;;;4.10;99.90;;;;;;4900375;29;20498;-75
2021/12/10 10:16:53;;;;;;;1999.90;656.13;;;4.10;99.90;;;;;;4917709;29;20452;-75
2021/12/10 10:19:22;;;;;;;1999.90;434.27;;;4.10;99.90;;;;;;4900495;29;20510;-75
2021/12/10 10:21:54;;;;;;;1999.90;561.27;;;4.10;99.90;;;;;;4900211;29;21032;-75
2021/12/10 10:24:25;;;;;;;1999.90;609.13;;;4.10;99.90;;;;;;4900694;29;20487;-75
2021/12/10 10:26:56;;;;;;;1999.90;400.00;;;4.20;99.90;;;;;;4900074;29;20959;-75
2021/12/10 10:29:32;;;;;;;1999.90;999.90;;;4.20;99.90;;;;;;4900548;29;20585;-75
2021/12/10 10:32:10;;;;;;;1999.90;803.33;;;4.20;99.90;;;;;;4917329;29;20464;-75
2021/12/10 10:34:42;;;;;;;1999.90;999.90;;;4.20;99.90;;;;;;4916865;29;20559;-75
2021/12/10 10:37:11;;;;;;;1999.90;999.90;;;4.30;99.90;;;;;;4900028;29;20461;-75
2021/12/10 10:39:42;;;;;;;1999.90;999.90;;;4.30;99.90;;;;;;4917080;29;20454;-75
2021/12/10 10:42:14;;;;;;;1997.70;555.03;;;4.30;99.90;;;;;;4917099;29;20445;-75
2021/12/10 10:44:57;;;;;;;1984.83;317.03;;;4.30;99.90;;;;;;4900079;29;20474;-75
2021/12/10 10:47:27;;;;;;;1999.90;999.90;;;4.30;99.90;;;;;;4900262;29;20570;-75
2021/12/10 10:49:58;;;;;;;1872.17;542.80;;;4.30;99.90;;;;;;4899915;29;20964;-75
2021/12/10 10:52:30;;;;;;;1570.43;511.60;;;4.30;99.90;;;;;;4899790;29;20920;-75
2021/12/10 10:55:01;;;;;;;1857.83;757.03;;;4.40;99.90;;;;;;4916953;29;20977;-75
2021/12/10 10:57:33;;;;;;;1999.90;999.90;;;4.40;99.90;;;;;;4917433;29;20433;-74
2021/12/10 11:00:15;;;;;;;1999.90;999.90;;;4.40;99.90;;;;;;4920570;29;20424;-75
2021/12/10 11:02:52;;;;;;;1999.90;999.90;;;4.40;99.90;;;;;;4920798;29;20490;-75
2021/12/10 11:05:23;;;;;;;1999.90;999.90;;;4.40;99.90;;;;;;4903605;29;20443;-75
2021/12/10 11:07:54;;;;;;;1999.90;999.90;;;4.50;99.90;;;;;;4903534;29;20482;-75
2021/12/10 11:10:29;;;;;;;1999.90;999.90;;;4.50;99.90;;;;;;4903445;29;20480;-75
2021/12/10 11:13:09;;;;;;;1999.90;999.90;;;4.40;99.90;;;;;;4903297;29;20566;-75
2021/12/10 11:15:38;;;;;;;1999.90;999.90;;;4.40;99.90;;;;;;4920538;29;20434;-75
2021/12/10 11:18:15;;;;;;;1741.93;530.47;;;4.50;99.90;;;;;;4920203;29;20847;-75
2021/12/10 11:20:46;;;;;;;1999.90;999.90;;;4.50;99.90;;;;;;4903283;29;20444;-75
2021/12/10 11:23:16;;;;;;;1999.90;999.90;;;4.50;99.90;;;;;;4920081;29;20563;-75
2021/12/10 11:25:48;;;;;;;1604.63;245.73;;;4.50;99.90;;;;;;4903236;29;20440;-75
2021/12/10 11:28:19;;;;;;;1600.87;507.77;;;4.50;99.90;;;;;;4903186;29;20526;-74
2021/12/10 11:30:51;;;;;;;1999.90;999.90;;;4.50;99.90;;;;;;4920476;29;20500;-75
2021/12/10 11:33:26;;;;;;;1999.90;999.90;;;4.60;99.90;;;;;;4920813;29;20463;-75
2021/12/10 11:35:57;;;;;;;1999.90;999.90;;;4.50;99.90;;;;;;4902897;29;20949;-75
2021/12/10 11:38:31;;;;;;;1999.90;999.90;;;4.60;99.90;;;;;;4902908;29;20450;-75
2021/12/10 11:41:02;;;;;;;1999.90;999.90;;;4.60;99.90;;;;;;4920202;29;20436;-75
2021/12/10 11:43:52;;;;;;;1999.90;999.90;;;4.60;99.90;;;;;;4903110;29;20964;-75
2021/12/10 11:46:51;;;;;;;1999.90;999.90;;;4.60;99.90;;;;;;4902783;29;20896;-75
2021/12/10 11:49:24;;;;;;;1999.90;999.90;;;4.60;99.90;;;;;;4902639;29;20471;-75
2021/12/10 11:52:00;;;;;;;1999.90;999.90;;;4.60;99.90;;;;;;4902766;29;20451;-75
2021/12/10 11:54:32;;;;;;;1999.90;999.90;;;4.60;99.90;;;;;;4902668;29;20474;-75
2021/12/10 11:57:05;;;;;;;1999.90;999.90;;;4.70;99.90;;;;;;4902631;29;20973;-75
2021/12/10 11:59:36;;;;;;;1999.90;999.90;;;4.70;99.90;;;;;;4902793;29;20540;-75
2021/12/10 12:02:08;;;;;;;1999.90;999.90;;;4.70;99.90;;;;;;4919890;29;20908;-75
2021/12/10 12:04:43;;;;;;;1999.90;999.90;;;4.70;99.90;;;;;;4902479;29;20526;-75
2021/12/10 12:07:29;;;;;;;1999.90;999.90;;;4.70;99.90;;;;;;4919761;29;20436;-75
2021/12/10 12:10:01;;;;;;;1999.90;999.90;;;4.70;99.90;;;;;;4901659;29;20647;-75
2021/12/10 12:12:37;;;;;;;1999.90;999.90;;;4.80;99.90;;;;;;4919798;29;20432;-75
2021/12/10 12:15:24;;;;;;;1999.90;999.90;;;4.80;99.90;;;;;;4919625;29;20468;-74
2021/12/10 12:17:53;;;;;;;1999.90;999.90;;;4.80;99.90;;;;;;4902365;29;20437;-75
2021/12/10 12:20:32;;;;;;;1999.90;999.90;;;4.80;99.90;;;;;;4918988;29;20476;-75
2021/12/10 12:25:52;;;;;;;1793.40;721.77;;;4.80;99.90;;;;;;4919237;29;20992;-75
2021/12/10 12:28:30;;;;;;;1999.90;999.90;;;4.90;99.90;;;;;;4902262;29;20491;-75
2021/12/10 12:31:21;;;;;;;1999.90;999.90;;;4.90;99.90;;;;;;4902322;29;20456;-75
2021/12/10 12:34:00;;;;;;;1999.90;999.90;;;4.90;99.90;;;;;;4918976;29;20535;-74
2021/12/10 12:36:34;;;;;;;1999.90;999.90;;;4.90;99.90;;;;;;4902444;29;20454;-75
2021/12/10 12:39:07;;;;;;;1999.90;999.90;;;5.00;99.90;;;;;;4902368;29;20927;-75
2021/12/10 12:41:38;;;;;;;1999.90;999.90;;;4.90;99.90;;;;;;4902542;29;20455;-75